Time;durP1;ratioP1;P1;durP2;ratioP2;P2;SDS_P1;SDS_P2;PMS_P1;PMS_P2;Temp;Humidity;BMP_temperature;BMP_pressure;BME280_temperature;BME280_humidity;BME280_pressure;Samples;Min_cycle;Max_cycle;Signal;HPM_P1;HPM_P2
2023/09/12 00:01:37;;;;;;;40.17;30.48;;;;;;;;;;5033490;28;20118;-66
2023/09/12 00:04:03;;;;;;;43.65;31.52;;;;;;;;;;5033748;28;20096;-66
2023/09/12 00:06:29;;;;;;;44.92;30.38;;;;;;;;;;5033599;28;20357;-66
2023/09/12 00:08:55;;;;;;;42.78;31.25;;;;;;;;;;5033047;28;20045;-66
2023/09/12 00:11:25;;;;;;;44.15;31.33;;;;;;;;;;5033700;28;20037;-66
2023/09/12 00:13:51;;;;;;;40.63;29.45;;;;;;;;;;5033726;28;20439;-66
2023/09/12 00:16:18;;;;;;;42.20;30.77;;;;;;;;;;5038799;28;20624;-66
2023/09/12 00:18:44;;;;;;;43.80;30.60;;;;;;;;;;5053541;28;20040;-66
2023/09/12 00:21:10;;;;;;;42.95;31.73;;;;;;;;;;5053411;28;20537;-66
2023/09/12 00:23:36;;;;;;;43.50;31.63;;;;;;;;;;5052161;28;20095;-66
2023/09/12 00:26:02;;;;;;;46.58;31.80;;;;;;;;;;5042872;28;20046;-66
2023/09/12 00:28:28;;;;;;;44.45;32.55;;;;;;;;;;5033421;28;20442;-66
2023/09/12 00:30:54;;;;;;;50.40;32.83;;;;;;;;;;5032920;28;20049;-66
2023/09/12 00:33:20;;;;;;;41.20;30.05;;;;;;;;;;5033168;28;20041;-66
2023/09/12 00:35:46;;;;;;;42.33;30.90;;;;;;;;;;5033251;28;20692;-66
2023/09/12 00:38:12;;;;;;;44.90;33.30;;;;;;;;;;5032824;28;20041;-66
2023/09/12 00:40:38;;;;;;;47.03;32.80;;;;;;;;;;5032981;28;20124;-66
2023/09/12 00:43:04;;;;;;;43.65;31.55;;;;;;;;;;5033157;28;20077;-66
2023/09/12 00:45:30;;;;;;;43.75;31.08;;;;;;;;;;5032224;28;20044;-66
2023/09/12 00:47:58;;;;;;;44.83;31.05;;;;;;;;;;5033086;28;20076;-66
2023/09/12 00:50:25;;;;;;;46.47;31.35;;;;;;;;;;5032682;28;20061;-66
2023/09/12 00:52:52;;;;;;;43.80;32.10;;;;;;;;;;5032456;28;20042;-66
2023/09/12 00:55:18;;;;;;;45.25;32.92;;;;;;;;;;5032700;28;20123;-66
2023/09/12 00:57:44;;;;;;;44.55;32.22;;;;;;;;;;5032914;28;20041;-66
2023/09/12 01:00:12;;;;;;;42.70;30.88;;;;;;;;;;5032398;28;20050;-66
2023/09/12 01:02:42;;;;;;;41.53;31.15;;;;;;;;;;5032703;28;20184;-66
2023/09/12 01:05:08;;;;;;;44.90;32.47;;;;;;;;;;5032626;28;20128;-66
2023/09/12 01:07:35;;;;;;;50.08;33.95;;;;;;;;;;5032273;28;20048;-66
2023/09/12 01:10:01;;;;;;;41.72;31.35;;;;;;;;;;5014516;28;20419;-66
2023/09/12 01:12:27;;;;;;;49.03;32.25;;;;;;;;;;5032521;28;20064;-66
2023/09/12 01:14:53;;;;;;;51.17;32.60;;;;;;;;;;5032069;28;20431;-66
2023/09/12 01:17:20;;;;;;;43.35;30.80;;;;;;;;;;5046518;28;20098;-66
2023/09/12 01:19:48;;;;;;;44.25;31.92;;;;;;;;;;5052049;28;20041;-66
2023/09/12 01:22:14;;;;;;;42.40;30.88;;;;;;;;;;5033655;28;20057;-66
2023/09/12 01:25:04;;;;;;;46.15;31.38;;;;;;;;;;5052150;28;20037;-66
2023/09/12 01:27:33;;;;;;;47.75;31.48;;;;;;;;;;5032309;28;20046;-66
2023/09/12 01:30:01;;;;;;;44.60;32.15;;;;;;;;;;5031763;28;20128;-66
2023/09/12 01:32:27;;;;;;;42.58;30.98;;;;;;;;;;5014268;28;20049;-66
2023/09/12 01:34:53;;;;;;;45.15;30.70;;;;;;;;;;5031948;28;20055;-66
2023/09/12 01:37:19;;;;;;;43.45;30.17;;;;;;;;;;5031024;28;20491;-66
2023/09/12 01:39:45;;;;;;;44.15;30.30;;;;;;;;;;5032007;28;20064;-66
2023/09/12 01:42:14;;;;;;;42.45;29.75;;;;;;;;;;5031769;28;20507;-66
2023/09/12 01:44:40;;;;;;;47.20;31.50;;;;;;;;;;5031374;28;20056;-66
2023/09/12 01:47:06;;;;;;;41.25;30.17;;;;;;;;;;5031986;28;20504;-66
2023/09/12 01:49:33;;;;;;;46.33;31.05;;;;;;;;;;5031512;28;20045;-66
2023/09/12 01:51:59;;;;;;;41.60;29.58;;;;;;;;;;5013848;28;20502;-66
2023/09/12 01:54:27;;;;;;;43.28;30.50;;;;;;;;;;5031822;28;20091;-66
2023/09/12 01:56:53;;;;;;;43.38;31.63;;;;;;;;;;5031993;28;20131;-66
2023/09/12 01:59:19;;;;;;;44.90;30.70;;;;;;;;;;5031367;28;20099;-66
2023/09/12 02:01:45;;;;;;;46.75;32.30;;;;;;;;;;5031662;28;20041;-66
2023/09/12 02:04:11;;;;;;;43.90;31.13;;;;;;;;;;5031550;28;20041;-66
2023/09/12 02:06:38;;;;;;;43.05;31.33;;;;;;;;;;5031304;28;20080;-66
2023/09/12 02:09:04;;;;;;;48.45;32.47;;;;;;;;;;5031421;28;20048;-66
2023/09/12 02:11:30;;;;;;;42.72;29.80;;;;;;;;;;5031742;28;20064;-66
2023/09/12 02:13:56;;;;;;;45.85;32.10;;;;;;;;;;5031209;28;20041;-66
2023/09/12 02:16:22;;;;;;;44.92;32.35;;;;;;;;;;5037833;28;20037;-66
2023/09/12 02:18:48;;;;;;;48.30;32.72;;;;;;;;;;5051621;28;20051;-66
2023/09/12 02:21:15;;;;;;;44.63;31.77;;;;;;;;;;5051079;28;20084;-66
2023/09/12 02:23:42;;;;;;;44.70;31.80;;;;;;;;;;5051331;28;20041;-66
2023/09/12 02:26:08;;;;;;;47.60;33.78;;;;;;;;;;5040149;28;20510;-66
2023/09/12 02:28:34;;;;;;;50.40;33.30;;;;;;;;;;5030911;28;20152;-66
2023/09/12 02:31:00;;;;;;;45.70;32.28;;;;;;;;;;5030323;28;20057;-66
2023/09/12 02:33:26;;;;;;;45.22;32.75;;;;;;;;;;5013395;28;20049;-66
2023/09/12 02:35:52;;;;;;;43.90;31.10;;;;;;;;;;5030717;28;20045;-66
2023/09/12 02:38:19;;;;;;;44.35;32.20;;;;;;;;;;5030857;28;20446;-66
2023/09/12 02:40:45;;;;;;;42.83;31.70;;;;;;;;;;5030644;28;20391;-66
2023/09/12 02:43:11;;;;;;;44.92;32.83;;;;;;;;;;5030415;28;20041;-66
2023/09/12 02:45:37;;;;;;;50.00;33.50;;;;;;;;;;5030734;28;20125;-66
2023/09/12 02:48:03;;;;;;;50.38;33.97;;;;;;;;;;5033109;28;20045;-66
2023/09/12 02:50:29;;;;;;;43.25;32.05;;;;;;;;;;5034426;28;20061;-66
2023/09/12 02:52:55;;;;;;;50.53;33.72;;;;;;;;;;5035134;28;20468;-66
2023/09/12 02:55:21;;;;;;;46.92;33.08;;;;;;;;;;5035102;28;20526;-66
2023/09/12 02:57:47;;;;;;;43.60;31.55;;;;;;;;;;5034688;28;20091;-66
2023/09/12 03:00:13;;;;;;;52.03;34.08;;;;;;;;;;5034949;28;20051;-66
2023/09/12 03:02:39;;;;;;;42.35;30.58;;;;;;;;;;5034826;28;20041;-66
2023/09/12 03:05:05;;;;;;;45.95;33.65;;;;;;;;;;5034462;28;20520;-67
2023/09/12 03:07:31;;;;;;;46.08;32.80;;;;;;;;;;5034869;28;20114;-67
2023/09/12 03:09:57;;;;;;;42.40;31.67;;;;;;;;;;5034939;28;20524;-67
2023/09/12 03:12:23;;;;;;;53.03;31.67;;;;;;;;;;5034104;28;20049;-67
2023/09/12 03:14:49;;;;;;;51.45;29.60;;;;;;;;;;5034675;28;20096;-67
2023/09/12 03:17:15;;;;;;;40.88;31.08;;;;;;;;;;5048163;28;20041;-67
2023/09/12 03:19:41;;;;;;;39.15;30.65;;;;;;;;;;5054303;28;20049;-67
2023/09/12 03:22:07;;;;;;;37.30;28.45;;;;;;;;;;5054413;28;20487;-67
2023/09/12 03:24:33;;;;;;;65.88;30.83;;;;;;;;;;5054413;28;20041;-67
2023/09/12 03:27:00;;;;;;;75.82;33.50;;;;;;;;;;5035711;28;20034;-67
2023/09/12 03:29:26;;;;;;;45.78;29.73;;;;;;;;;;5034575;28;20091;-67
2023/09/12 03:31:52;;;;;;;70.95;32.20;;;;;;;;;;5034162;28;20035;-67
2023/09/12 03:34:18;;;;;;;51.25;31.05;;;;;;;;;;5033910;28;20088;-67
2023/09/12 03:36:44;;;;;;;51.70;31.65;;;;;;;;;;5034403;28;20045;-67
2023/09/12 03:39:12;;;;;;;56.72;32.35;;;;;;;;;;5034301;28;20091;-67
2023/09/12 03:41:39;;;;;;;56.05;30.77;;;;;;;;;;5033921;28;20103;-67
2023/09/12 03:44:05;;;;;;;44.30;31.98;;;;;;;;;;5034158;28;20038;-67
2023/09/12 03:46:31;;;;;;;42.75;30.05;;;;;;;;;;5034267;28;20472;-67
2023/09/12 03:48:57;;;;;;;79.53;31.63;;;;;;;;;;5034118;28;20103;-67
2023/09/12 03:51:23;;;;;;;49.53;31.58;;;;;;;;;;5033422;28;20404;-67
2023/09/12 03:53:49;;;;;;;60.55;33.22;;;;;;;;;;5033937;28;20045;-67
2023/09/12 03:56:16;;;;;;;42.28;31.42;;;;;;;;;;5034082;28;20045;-67
2023/09/12 03:58:42;;;;;;;47.13;31.88;;;;;;;;;;5032565;28;20518;-67
2023/09/12 04:01:08;;;;;;;46.22;31.50;;;;;;;;;;5033857;28;20705;-67
2023/09/12 04:03:34;;;;;;;39.85;30.75;;;;;;;;;;5033797;28;20092;-67
2023/09/12 04:06:00;;;;;;;41.15;31.15;;;;;;;;;;5033458;28;20080;-67
2023/09/12 04:08:26;;;;;;;67.63;32.45;;;;;;;;;;5033795;28;20037;-67
2023/09/12 04:10:52;;;;;;;42.63;31.65;;;;;;;;;;5033813;28;20037;-67
2023/09/12 04:13:18;;;;;;;74.80;32.30;;;;;;;;;;5033285;28;20045;-67
2023/09/12 04:15:44;;;;;;;43.88;30.45;;;;;;;;;;5034743;28;20048;-67
2023/09/12 04:18:10;;;;;;;44.75;30.55;;;;;;;;;;5053582;28;20044;-67
2023/09/12 04:20:36;;;;;;;70.15;31.45;;;;;;;;;;5053258;28;20067;-67
2023/09/12 04:23:03;;;;;;;44.00;31.67;;;;;;;;;;5052944;28;20055;-67
2023/09/12 04:25:30;;;;;;;77.82;32.47;;;;;;;;;;5047414;28;20112;-67
2023/09/12 04:27:56;;;;;;;44.55;31.65;;;;;;;;;;5032663;28;20049;-67
2023/09/12 04:30:22;;;;;;;43.33;31.33;;;;;;;;;;5033185;28;20088;-67
2023/09/12 04:32:48;;;;;;;49.63;32.33;;;;;;;;;;5033382;28;20065;-67
2023/09/12 04:35:14;;;;;;;55.88;32.53;;;;;;;;;;5032871;28;20069;-67
2023/09/12 04:37:40;;;;;;;43.85;32.25;;;;;;;;;;5033210;28;20432;-67
2023/09/12 04:40:07;;;;;;;45.95;32.08;;;;;;;;;;5033206;28;20047;-67
2023/09/12 04:42:33;;;;;;;45.40;32.95;;;;;;;;;;5032565;28;20044;-67
2023/09/12 04:44:59;;;;;;;79.05;34.38;;;;;;;;;;5032754;28;20125;-67
2023/09/12 04:47:25;;;;;;;56.65;34.75;;;;;;;;;;5033163;28;20037;-66
2023/09/12 04:49:51;;;;;;;76.28;34.45;;;;;;;;;;5032108;28;20168;-66
2023/09/12 04:52:17;;;;;;;114.68;37.17;;;;;;;;;;5032949;28;20069;-66
2023/09/12 04:54:43;;;;;;;56.15;34.35;;;;;;;;;;5032600;28;20124;-66
2023/09/12 04:57:09;;;;;;;49.72;34.00;;;;;;;;;;5032544;28;20050;-66
2023/09/12 04:59:35;;;;;;;52.75;34.03;;;;;;;;;;5032835;28;20041;-66
2023/09/12 05:02:02;;;;;;;55.33;35.15;;;;;;;;;;5032529;28;20120;-66
2023/09/12 05:04:28;;;;;;;55.58;36.95;;;;;;;;;;5032326;28;20559;-66
2023/09/12 05:06:54;;;;;;;58.83;35.33;;;;;;;;;;5032705;28;20038;-66
2023/09/12 05:09:20;;;;;;;58.38;36.75;;;;;;;;;;5032658;28;20468;-66
2023/09/12 05:11:46;;;;;;;61.28;36.85;;;;;;;;;;5032018;28;20037;-66
2023/09/12 05:14:12;;;;;;;56.55;36.38;;;;;;;;;;5014705;28;20081;-66
2023/09/12 05:16:38;;;;;;;60.70;36.97;;;;;;;;;;5040876;28;20033;-66
2023/09/12 05:19:05;;;;;;;62.30;37.08;;;;;;;;;;5051917;28;20045;-66
2023/09/12 05:21:31;;;;;;;64.40;38.92;;;;;;;;;;5051963;28;20047;-66
2023/09/12 05:23:57;;;;;;;56.25;36.13;;;;;;;;;;5052064;28;20052;-66
2023/09/12 05:26:23;;;;;;;64.65;36.05;;;;;;;;;;5038524;28;20033;-66
2023/09/12 05:28:49;;;;;;;61.85;37.42;;;;;;;;;;5032299;28;20120;-66
2023/09/12 05:31:15;;;;;;;62.20;37.85;;;;;;;;;;5032220;28;20091;-66
2023/09/12 05:33:41;;;;;;;57.80;35.83;;;;;;;;;;5031771;28;20077;-66
2023/09/12 05:36:07;;;;;;;57.95;35.33;;;;;;;;;;5032161;28;20503;-66
2023/09/12 05:38:33;;;;;;;64.38;38.40;;;;;;;;;;5032132;28;20526;-66
2023/09/12 05:40:59;;;;;;;62.10;38.35;;;;;;;;;;5031505;28;20045;-66
2023/09/12 05:43:25;;;;;;;65.03;38.40;;;;;;;;;;5031864;28;20081;-66
2023/09/12 05:45:52;;;;;;;65.72;37.75;;;;;;;;;;5032096;28;20091;-66
2023/09/12 05:48:19;;;;;;;61.00;36.35;;;;;;;;;;5031611;28;20111;-66
2023/09/12 05:50:45;;;;;;;63.58;37.78;;;;;;;;;;5031531;28;20041;-66
2023/09/12 05:53:11;;;;;;;66.15;37.28;;;;;;;;;;5031843;28;20037;-66
2023/09/12 05:55:37;;;;;;;58.20;35.25;;;;;;;;;;5031170;28;20048;-66
2023/09/12 05:58:05;;;;;;;65.60;37.53;;;;;;;;;;5031768;28;20077;-66
2023/09/12 06:00:31;;;;;;;61.33;36.03;;;;;;;;;;5031775;28;20156;-66
2023/09/12 06:02:57;;;;;;;65.50;37.05;;;;;;;;;;5031346;28;20045;-66
2023/09/12 06:05:23;;;;;;;62.65;37.17;;;;;;;;;;5031529;28;20038;-66
2023/09/12 06:07:50;;;;;;;63.80;36.28;;;;;;;;;;5031783;28;20047;-66
2023/09/12 06:10:16;;;;;;;61.67;35.80;;;;;;;;;;5031303;28;20109;-66
2023/09/12 06:12:42;;;;;;;63.22;36.40;;;;;;;;;;5031765;28;20088;-66
2023/09/12 06:15:08;;;;;;;62.75;36.75;;;;;;;;;;5031565;28;20090;-66
2023/09/12 06:17:34;;;;;;;62.08;35.58;;;;;;;;;;5047236;28;20497;-66
2023/09/12 06:20:00;;;;;;;56.15;34.47;;;;;;;;;;5051103;28;20077;-66
2023/09/12 06:22:26;;;;;;;64.63;37.00;;;;;;;;;;5049814;28;20128;-66
2023/09/12 06:24:52;;;;;;;61.55;36.60;;;;;;;;;;5052546;28;20511;-67
2023/09/12 06:27:18;;;;;;;61.60;36.65;;;;;;;;;;5045584;28;20072;-65
2023/09/12 06:29:48;;;;;;;59.67;36.03;;;;;;;;;;5049673;28;20041;-66
2023/09/12 06:32:15;;;;;;;58.80;35.63;;;;;;;;;;5056023;28;20065;-68
2023/09/12 06:34:41;;;;;;;63.28;38.80;;;;;;;;;;5042312;28;20051;-66
2023/09/12 06:37:07;;;;;;;70.28;39.13;;;;;;;;;;5075097;28;20127;-67
2023/09/12 06:39:33;;;;;;;59.05;34.42;;;;;;;;;;5060090;28;20037;-66
2023/09/12 06:42:00;;;;;;;62.40;36.83;;;;;;;;;;5053423;28;20402;-66
2023/09/12 06:44:25;;;;;;;64.65;37.92;;;;;;;;;;5074052;28;20379;-66
2023/09/12 06:46:52;;;;;;;70.30;38.85;;;;;;;;;;5065749;28;20038;-64
2023/09/12 06:49:17;;;;;;;74.47;40.60;;;;;;;;;;5061014;28;20041;-66
2023/09/12 06:51:43;;;;;;;66.43;38.63;;;;;;;;;;5067462;28;20035;-63
2023/09/12 06:54:10;;;;;;;69.97;39.63;;;;;;;;;;5067598;28;20037;-66
2023/09/12 06:56:37;;;;;;;70.95;38.67;;;;;;;;;;5058940;28;20037;-65
2023/09/12 06:59:04;;;;;;;73.40;38.53;;;;;;;;;;5059616;28;20044;-65
2023/09/12 07:01:30;;;;;;;67.68;37.75;;;;;;;;;;5027219;28;20049;-66
2023/09/12 07:03:56;;;;;;;65.72;38.50;;;;;;;;;;5042413;28;20153;-65
2023/09/12 07:06:23;;;;;;;68.03;39.13;;;;;;;;;;5037064;28;20428;-65
2023/09/12 07:08:49;;;;;;;70.82;38.70;;;;;;;;;;5041683;28;20128;-66
2023/09/12 07:11:15;;;;;;;69.82;40.72;;;;;;;;;;5046450;28;20119;-67
2023/09/12 07:13:41;;;;;;;66.63;38.58;;;;;;;;;;5008346;28;20045;-66
2023/09/12 07:16:07;;;;;;;72.50;41.92;;;;;;;;;;5045272;28;20136;-65
2023/09/12 07:18:33;;;;;;;75.78;44.42;;;;;;;;;;5038770;28;20068;-65
2023/09/12 07:21:00;;;;;;;71.95;40.42;;;;;;;;;;5033005;28;20049;-66
2023/09/12 07:23:26;;;;;;;66.95;39.47;;;;;;;;;;5026323;28;20042;-67
2023/09/12 07:25:53;;;;;;;68.15;39.78;;;;;;;;;;5053706;28;20086;-64
2023/09/12 07:28:19;;;;;;;71.05;40.53;;;;;;;;;;5036701;28;20348;-67
2023/09/12 07:30:48;;;;;;;74.95;42.28;;;;;;;;;;5047621;28;20036;-66
2023/09/12 07:33:14;;;;;;;69.47;41.35;;;;;;;;;;5051833;28;20487;-65
2023/09/12 07:35:40;;;;;;;80.38;45.00;;;;;;;;;;5059743;28;20077;-65
2023/09/12 07:38:06;;;;;;;75.95;41.55;;;;;;;;;;5033203;28;20045;-66
2023/09/12 07:40:32;;;;;;;73.53;40.95;;;;;;;;;;5064057;28;20123;-65
2023/09/12 07:42:58;;;;;;;81.18;45.05;;;;;;;;;;5062512;28;20106;-67
2023/09/12 07:45:24;;;;;;;76.88;43.97;;;;;;;;;;5052540;28;20037;-67
2023/09/12 07:47:51;;;;;;;78.72;46.45;;;;;;;;;;5070885;28;20052;-66
2023/09/12 07:50:17;;;;;;;72.70;43.42;;;;;;;;;;5062148;28;20052;-66
2023/09/12 07:52:43;;;;;;;63.40;38.25;;;;;;;;;;5034799;28;20127;-65
2023/09/12 07:55:09;;;;;;;63.65;38.65;;;;;;;;;;5044373;28;20041;-66
2023/09/12 07:57:36;;;;;;;68.50;39.47;;;;;;;;;;5041864;28;20055;-66
2023/09/12 08:00:04;;;;;;;61.25;38.25;;;;;;;;;;5036022;28;20067;-65
2023/09/12 08:02:30;;;;;;;53.63;34.72;;;;;;;;;;5055644;28;20949;-65
2023/09/12 08:04:56;;;;;;;58.88;37.03;;;;;;;;;;5071865;28;20560;-65
2023/09/12 08:07:23;;;;;;;49.63;32.90;;;;;;;;;;5042252;28;20041;-64
2023/09/12 08:09:49;;;;;;;54.15;35.05;;;;;;;;;;5053979;28;20036;-66
2023/09/12 08:12:15;;;;;;;51.80;34.90;;;;;;;;;;5071291;28;20068;-67
2023/09/12 08:14:41;;;;;;;50.88;33.95;;;;;;;;;;5062271;28;20055;-65
2023/09/12 08:17:07;;;;;;;48.35;32.58;;;;;;;;;;5048310;28;20037;-64
2023/09/12 08:19:33;;;;;;;49.22;32.30;;;;;;;;;;5063289;28;20043;-65
2023/09/12 08:21:59;;;;;;;49.50;32.38;;;;;;;;;;5027414;28;20044;-57
2023/09/12 08:24:25;;;;;;;49.20;33.42;;;;;;;;;;5063959;28;20094;-58
2023/09/12 08:26:51;;;;;;;54.67;34.20;;;;;;;;;;5052545;28;20071;-56
2023/09/12 08:29:17;;;;;;;52.75;33.72;;;;;;;;;;5037062;28;20065;-58
2023/09/12 08:31:44;;;;;;;55.10;36.17;;;;;;;;;;5057909;28;20037;-58
2023/09/12 08:34:10;;;;;;;56.05;35.88;;;;;;;;;;5038425;28;20083;-57
2023/09/12 08:36:36;;;;;;;54.13;35.13;;;;;;;;;;5044727;28;20543;-57
2023/09/12 08:39:04;;;;;;;56.55;34.92;;;;;;;;;;5049287;28;20057;-58
2023/09/12 08:41:30;;;;;;;50.45;32.83;;;;;;;;;;5045196;28;20049;-62
2023/09/12 08:43:56;;;;;;;63.33;37.13;;;;;;;;;;5047443;28;20371;-60
2023/09/12 08:46:23;;;;;;;51.33;33.35;;;;;;;;;;5057380;28;20039;-60
2023/09/12 08:48:50;;;;;;;51.58;33.67;;;;;;;;;;5050452;28;20025;-60
2023/09/12 08:51:16;;;;;;;60.50;36.40;;;;;;;;;;5056217;28;20060;-61
2023/09/12 08:53:42;;;;;;;60.67;37.05;;;;;;;;;;5065419;28;20040;-56
2023/09/12 08:56:09;;;;;;;58.08;36.75;;;;;;;;;;5059375;28;20045;-58
2023/09/12 08:58:35;;;;;;;59.45;36.65;;;;;;;;;;5059250;28;20158;-58
2023/09/12 09:01:03;;;;;;;62.58;37.88;;;;;;;;;;5069639;28;20041;-60
2023/09/12 09:03:29;;;;;;;59.80;35.45;;;;;;;;;;5058428;28;20049;-62
2023/09/12 09:05:56;;;;;;;54.03;35.08;;;;;;;;;;5042940;28;20119;-61
2023/09/12 09:08:23;;;;;;;56.53;35.50;;;;;;;;;;5032573;28;20033;-62
2023/09/12 09:10:55;;;;;;;54.75;33.33;;;;;;;;;;5055076;28;20451;-61
2023/09/12 09:13:21;;;;;;;56.92;35.88;;;;;;;;;;5057767;28;20098;-61
2023/09/12 09:15:47;;;;;;;59.55;37.05;;;;;;;;;;5062920;28;20055;-62
2023/09/12 09:18:13;;;;;;;53.55;33.60;;;;;;;;;;5051093;28;20529;-63
2023/09/12 09:20:40;;;;;;;53.67;34.70;;;;;;;;;;5066449;28;20048;-60
2023/09/12 09:23:10;;;;;;;55.13;34.67;;;;;;;;;;5034970;28;20078;-59
2023/09/12 09:25:37;;;;;;;59.70;35.78;;;;;;;;;;5050971;28;20439;-60
2023/09/12 09:28:04;;;;;;;56.97;35.20;;;;;;;;;;5047295;28;20053;-60
2023/09/12 09:30:41;;;;;;;56.70;36.53;;;;;;;;;;5043308;28;20112;-59
2023/09/12 09:33:07;;;;;;;57.95;35.95;;;;;;;;;;5049961;28;20045;-56
2023/09/12 09:35:33;;;;;;;58.25;35.65;;;;;;;;;;5057177;28;20089;-60
2023/09/12 09:37:59;;;;;;;56.55;33.80;;;;;;;;;;5049832;28;20044;-61
2023/09/12 09:40:25;;;;;;;59.75;36.28;;;;;;;;;;5064988;28;20043;-58
2023/09/12 09:42:55;;;;;;;56.35;35.58;;;;;;;;;;5054573;28;20037;-61
2023/09/12 09:45:21;;;;;;;53.08;33.97;;;;;;;;;;5045991;28;20040;-60
2023/09/12 09:47:50;;;;;;;56.95;36.65;;;;;;;;;;5053373;28;20043;-59
2023/09/12 09:50:16;;;;;;;51.13;32.83;;;;;;;;;;5051676;28;20091;-61
2023/09/12 09:52:43;;;;;;;52.75;32.90;;;;;;;;;;5046853;28;20453;-61
2023/09/12 09:55:20;;;;;;;57.38;37.20;;;;;;;;;;5039808;28;20041;-62
2023/09/12 09:57:48;;;;;;;56.25;36.05;;;;;;;;;;5056254;28;20037;-61
2023/09/12 10:00:14;;;;;;;59.85;36.17;;;;;;;;;;5065770;28;20055;-64
2023/09/12 10:02:41;;;;;;;53.17;36.17;;;;;;;;;;5057679;28;20095;-60
2023/09/12 10:05:10;;;;;;;60.67;36.60;;;;;;;;;;5028303;28;20040;-56
2023/09/12 10:07:38;;;;;;;49.92;34.10;;;;;;;;;;5049095;28;20399;-59
2023/09/12 10:10:04;;;;;;;50.08;32.45;;;;;;;;;;5041356;28;20040;-60
2023/09/12 10:12:37;;;;;;;48.67;31.60;;;;;;;;;;5054342;28;20240;-60
2023/09/12 10:15:04;;;;;;;48.40;32.05;;;;;;;;;;5030658;28;20045;-59
2023/09/12 10:17:34;;;;;;;49.42;31.95;;;;;;;;;;5034225;28;20045;-60
2023/09/12 10:20:09;;;;;;;43.90;28.38;;;;;;;;;;5063489;28;20041;-60
2023/09/12 10:22:40;;;;;;;45.47;29.77;;;;;;;;;;5058669;28;20129;-60
2023/09/12 10:25:07;;;;;;;44.03;29.27;;;;;;;;;;5064310;28;21369;-63
2023/09/12 10:27:34;;;;;;;45.05;30.23;;;;;;;;;;5064141;28;20045;-61
2023/09/12 10:30:01;;;;;;;39.88;27.05;;;;;;;;;;5068635;28;20131;-63
2023/09/12 10:32:29;;;;;;;44.00;29.08;;;;;;;;;;5034767;28;20048;-62
2023/09/12 10:34:58;;;;;;;42.65;28.80;;;;;;;;;;5051827;28;20037;-61
2023/09/12 10:37:25;;;;;;;39.95;27.63;;;;;;;;;;5042995;28;20119;-61
2023/09/12 10:39:53;;;;;;;38.78;27.38;;;;;;;;;;5066088;28;20043;-61
2023/09/12 10:42:21;;;;;;;35.97;26.00;;;;;;;;;;5047656;28;20032;-61
2023/09/12 10:44:47;;;;;;;36.00;26.42;;;;;;;;;;5067049;28;20041;-61
2023/09/12 10:47:14;;;;;;;36.97;26.02;;;;;;;;;;5069616;28;20466;-61
2023/09/12 10:49:40;;;;;;;38.13;26.13;;;;;;;;;;5069612;28;20047;-61
2023/09/12 10:52:06;;;;;;;39.20;27.17;;;;;;;;;;5066471;28;20402;-61
2023/09/12 10:54:39;;;;;;;39.67;27.05;;;;;;;;;;5046876;28;20052;-61
2023/09/12 10:57:13;;;;;;;40.35;27.58;;;;;;;;;;5069451;28;20044;-61
2023/09/12 10:59:58;;;;;;;33.08;23.40;;;;;;;;;;5059318;28;20041;-61
2023/09/12 11:02:31;;;;;;;33.00;23.10;;;;;;;;;;5053354;28;20041;-61
2023/09/12 11:04:57;;;;;;;33.65;23.13;;;;;;;;;;5049996;28;20044;-61
2023/09/12 11:07:34;;;;;;;39.33;26.48;;;;;;;;;;5062569;28;20455;-61
2023/09/12 11:10:18;;;;;;;31.67;21.85;;;;;;;;;;5030769;28;20041;-61
2023/09/12 11:12:44;;;;;;;35.22;23.45;;;;;;;;;;5034352;28;20044;-61
2023/09/12 11:15:10;;;;;;;31.65;23.05;;;;;;;;;;5036593;28;20628;-62
2023/09/12 11:17:40;;;;;;;27.27;20.13;;;;;;;;;;5017564;28;20052;-62
2023/09/12 11:20:10;;;;;;;25.90;19.40;;;;;;;;;;5019296;28;20048;-62
2023/09/12 11:22:39;;;;;;;28.15;20.98;;;;;;;;;;5022182;28;20472;-58
2023/09/12 11:25:05;;;;;;;29.10;20.65;;;;;;;;;;5042853;28;20056;-59
2023/09/12 11:27:32;;;;;;;33.15;20.42;;;;;;;;;;5041022;28;20040;-57
2023/09/12 11:30:06;;;;;;;28.45;20.67;;;;;;;;;;5052006;28;20112;-59
2023/09/12 11:32:33;;;;;;;30.95;21.50;;;;;;;;;;5036511;28;20201;-58
2023/09/12 11:35:00;;;;;;;30.08;21.08;;;;;;;;;;5039975;28;20041;-59
2023/09/12 11:37:27;;;;;;;34.60;23.17;;;;;;;;;;5021407;28;20120;-59
2023/09/12 11:39:54;;;;;;;31.48;22.35;;;;;;;;;;5027572;28;20490;-61
2023/09/12 11:42:22;;;;;;;31.17;21.67;;;;;;;;;;5025467;28;20036;-60
2023/09/12 11:44:49;;;;;;;31.60;21.80;;;;;;;;;;5033862;28;20138;-60
2023/09/12 11:47:15;;;;;;;29.27;20.17;;;;;;;;;;5005734;28;20034;-60
2023/09/12 11:49:42;;;;;;;34.65;23.65;;;;;;;;;;5014251;28;20060;-57
2023/09/12 11:52:16;;;;;;;30.60;22.75;;;;;;;;;;5010270;28;20088;-60
2023/09/12 11:54:43;;;;;;;30.80;20.95;;;;;;;;;;5024930;28;20449;-58
2023/09/12 11:57:13;;;;;;;26.23;18.48;;;;;;;;;;5021141;28;20068;-58
2023/09/12 11:59:48;;;;;;;31.02;22.58;;;;;;;;;;5041195;28;20441;-58
2023/09/12 12:02:14;;;;;;;28.10;20.48;;;;;;;;;;5071570;28;20045;-60
2023/09/12 12:04:41;;;;;;;26.15;18.55;;;;;;;;;;5043915;28;20087;-60
2023/09/12 12:07:07;;;;;;;28.13;19.98;;;;;;;;;;5022119;28;20122;-55
2023/09/12 12:09:34;;;;;;;28.88;20.60;;;;;;;;;;5018758;28;20044;-59
2023/09/12 12:12:09;;;;;;;28.60;19.05;;;;;;;;;;5046948;28;20055;-59
2023/09/12 12:14:36;;;;;;;30.35;20.02;;;;;;;;;;5053091;28;20040;-59
2023/09/12 12:17:12;;;;;;;28.55;20.45;;;;;;;;;;5042792;28;20079;-59
2023/09/12 12:19:38;;;;;;;27.50;18.92;;;;;;;;;;5030665;28;20045;-62
2023/09/12 12:22:05;;;;;;;27.00;18.05;;;;;;;;;;5023810;28;20037;-60
2023/09/12 12:24:38;;;;;;;26.65;16.85;;;;;;;;;;5043056;28;20563;-60
2023/09/12 12:27:05;;;;;;;24.80;16.73;;;;;;;;;;5067983;28;20036;-58
2023/09/12 12:29:33;;;;;;;23.80;16.45;;;;;;;;;;5061736;28;20067;-59
2023/09/12 12:32:04;;;;;;;23.65;16.70;;;;;;;;;;5042027;28;20455;-58
2023/09/12 12:34:30;;;;;;;24.52;17.58;;;;;;;;;;5044441;28;20045;-59
2023/09/12 12:36:56;;;;;;;21.65;15.95;;;;;;;;;;5047746;28;20889;-61
2023/09/12 12:39:23;;;;;;;28.73;18.40;;;;;;;;;;5058910;28;20083;-59
2023/09/12 12:41:49;;;;;;;17.17;11.15;;;;;;;;;;5071199;28;20052;-59
2023/09/12 12:44:15;;;;;;;15.80;11.95;;;;;;;;;;5057298;28;20037;-57
2023/09/12 12:46:54;;;;;;;16.48;11.13;;;;;;;;;;5060460;28;20048;-59
2023/09/12 12:49:20;;;;;;;9.80;7.10;;;;;;;;;;5041928;28;20045;-59
2023/09/12 12:51:47;;;;;;;11.55;7.43;;;;;;;;;;5055770;28;20045;-60
2023/09/12 12:54:14;;;;;;;11.73;7.22;;;;;;;;;;5050113;28;20041;-60
2023/09/12 12:56:40;;;;;;;12.68;7.68;;;;;;;;;;5046709;28;20075;-60
2023/09/12 12:59:08;;;;;;;13.30;9.07;;;;;;;;;;5066017;28;20094;-62
2023/09/12 13:01:38;;;;;;;12.38;8.70;;;;;;;;;;5068757;28;20466;-61
2023/09/12 13:04:10;;;;;;;14.13;7.97;;;;;;;;;;5070921;28;20093;-61
2023/09/12 13:06:37;;;;;;;12.55;8.00;;;;;;;;;;5071411;28;20044;-62
2023/09/12 13:09:04;;;;;;;15.05;9.90;;;;;;;;;;5069645;28;20075;-61
2023/09/12 13:11:30;;;;;;;13.82;9.70;;;;;;;;;;5062569;28;20047;-61
2023/09/12 13:13:57;;;;;;;15.05;11.38;;;;;;;;;;5032373;28;20582;-61
2023/09/12 13:16:23;;;;;;;22.30;12.52;;;;;;;;;;5051493;28;20435;-60
2023/09/12 13:18:48;;;;;;;21.08;13.98;;;;;;;;;;5058682;28;20612;-62
2023/09/12 13:21:14;;;;;;;17.65;13.55;;;;;;;;;;5070321;28;20052;-62
2023/09/12 13:23:41;;;;;;;23.00;15.20;;;;;;;;;;5065886;28;20666;-61
2023/09/12 13:26:08;;;;;;;23.67;15.30;;;;;;;;;;5042140;28;20472;-60
2023/09/12 13:28:34;;;;;;;23.30;17.58;;;;;;;;;;5043810;28;20041;-64
2023/09/12 13:31:00;;;;;;;22.83;15.73;;;;;;;;;;5033742;28;20099;-63
2023/09/12 13:33:26;;;;;;;22.08;14.32;;;;;;;;;;5050755;28;20487;-64
2023/09/12 13:35:52;;;;;;;17.95;12.85;;;;;;;;;;5050964;28;20048;-66
2023/09/12 13:38:19;;;;;;;13.55;8.57;;;;;;;;;;5051455;28;20099;-65
2023/09/12 13:40:46;;;;;;;10.68;6.38;;;;;;;;;;5060502;28;20048;-65
2023/09/12 13:43:12;;;;;;;9.18;5.35;;;;;;;;;;5070350;28;20054;-66
2023/09/12 13:45:39;;;;;;;8.45;3.85;;;;;;;;;;5070714;28;20068;-66
2023/09/12 13:48:05;;;;;;;9.10;4.10;;;;;;;;;;5071151;28;20055;-66
2023/09/12 13:50:32;;;;;;;6.70;4.60;;;;;;;;;;5070340;28;20057;-66
2023/09/12 13:53:06;;;;;;;9.15;5.70;;;;;;;;;;5070836;28;20097;-66
2023/09/12 13:55:34;;;;;;;8.27;5.10;;;;;;;;;;5053048;28;20052;-64
2023/09/12 13:58:00;;;;;;;12.60;6.45;;;;;;;;;;5070021;28;20070;-65
2023/09/12 14:00:26;;;;;;;8.35;5.97;;;;;;;;;;5070712;28;20085;-66
2023/09/12 14:02:52;;;;;;;9.55;5.50;;;;;;;;;;5070840;28;20032;-66
2023/09/12 14:05:18;;;;;;;10.57;7.07;;;;;;;;;;5051836;28;20044;-64
2023/09/12 14:07:44;;;;;;;11.00;6.93;;;;;;;;;;5053451;28;20048;-63
2023/09/12 14:10:10;;;;;;;8.20;5.65;;;;;;;;;;5071115;28;20059;-63
2023/09/12 14:12:36;;;;;;;8.23;4.72;;;;;;;;;;5070171;28;20103;-63
2023/09/12 14:15:03;;;;;;;7.85;4.43;;;;;;;;;;5070705;28;20040;-63
2023/09/12 14:17:29;;;;;;;7.28;4.47;;;;;;;;;;5063437;28;20045;-63